createdAt,value
2019-06-07T00:01:44.374Z,21.63
2019-06-07T00:04:12.054Z,21.62
2019-06-07T00:06:39.308Z,21.61
2019-06-07T00:09:08.169Z,21.62
2019-06-07T00:11:34.326Z,21.62
2019-06-07T00:14:00.927Z,21.61
2019-06-07T00:16:27.577Z,21.60
2019-06-07T00:18:54.181Z,21.60
2019-06-07T00:22:12.220Z,21.59
2019-06-07T00:23:49.099Z,21.57
2019-06-07T00:26:19.181Z,21.55
2019-06-07T00:28:44.024Z,21.53
2019-06-07T00:31:11.467Z,21.50
2019-06-07T00:33:38.674Z,21.47
2019-06-07T00:36:05.294Z,21.43
2019-06-07T00:38:31.896Z,21.39
2019-06-07T00:40:58.497Z,21.38
2019-06-07T00:43:28.104Z,21.35
2019-06-07T00:45:53.393Z,21.32
2019-06-07T00:48:30.265Z,21.28
2019-06-07T00:50:49.259Z,21.24
2019-06-07T00:53:23.435Z,21.20
2019-06-07T00:55:44.170Z,21.17
2019-06-07T00:58:13.567Z,21.15
2019-06-07T01:00:39.088Z,21.14
2019-06-07T01:03:05.710Z,21.14
2019-06-07T01:05:32.322Z,21.14
2019-06-07T01:07:59.094Z,21.15
2019-06-07T01:10:51.710Z,21.14
2019-06-07T01:12:54.020Z,21.13
2019-06-07T01:15:23.527Z,21.14
2019-06-07T01:18:33.026Z,21.12
2019-06-07T01:20:19.180Z,21.12
2019-06-07T01:22:45.595Z,21.10
2019-06-07T01:25:12.199Z,21.09
2019-06-07T01:27:38.803Z,21.10
2019-06-07T01:30:05.395Z,21.09
2019-06-07T01:32:32.026Z,21.08
2019-06-07T01:34:58.666Z,21.07
2019-06-07T01:37:27.852Z,21.08
2019-06-07T01:39:53.586Z,21.09
2019-06-07T01:42:22.012Z,21.07
2019-06-07T01:44:48.648Z,21.05
2019-06-07T01:47:15.258Z,21.03
2019-06-07T01:49:41.853Z,21.03
2019-06-07T01:52:08.468Z,21.03
2019-06-07T01:54:56.097Z,21.01
2019-06-07T01:57:03.556Z,21.01
2019-06-07T01:59:31.567Z,21.02
2019-06-07T02:01:58.527Z,21.01
2019-06-07T02:04:29.314Z,21.00
2019-06-07T02:06:53.478Z,21.00
2019-06-07T02:09:20.945Z,20.99
2019-06-07T02:11:47.706Z,20.99
2019-06-07T02:14:14.308Z,20.98
2019-06-07T02:16:40.919Z,20.98
2019-06-07T02:19:07.493Z,20.97
2019-06-07T02:21:34.665Z,20.96
2019-06-07T02:24:01.482Z,20.94
2019-06-07T02:26:30.011Z,20.92
2019-06-07T02:28:56.379Z,20.92
2019-06-07T02:31:25.228Z,20.91
2019-06-07T02:33:52.041Z,20.91
2019-06-07T02:36:18.617Z,20.91
2019-06-07T02:38:45.269Z,20.92
2019-06-07T02:41:11.891Z,20.91
2019-06-07T02:43:38.465Z,20.91
2019-06-07T02:46:24.428Z,20.91
2019-06-07T02:48:39.475Z,20.90
2019-06-07T02:51:01.804Z,20.91
2019-06-07T02:53:30.800Z,20.91
2019-06-07T02:56:35.312Z,20.93
2019-06-07T02:58:29.685Z,20.95
2019-06-07T03:01:08.404Z,20.97
2019-06-07T03:03:22.239Z,20.98
2019-06-07T03:05:49.208Z,21.01
2019-06-07T03:08:15.833Z,21.04
2019-06-07T03:10:42.424Z,21.07
2019-06-07T03:13:08.999Z,21.11
2019-06-07T03:15:45.755Z,21.14
2019-06-07T03:18:03.976Z,21.16
2019-06-07T03:20:32.844Z,21.20
2019-06-07T03:22:58.889Z,21.22
2019-06-07T03:25:25.750Z,21.26
2019-06-07T03:27:52.479Z,21.31
2019-06-07T03:32:48.618Z,21.35
2019-06-07T03:35:15.394Z,21.41
2019-06-07T03:37:43.019Z,21.43
2019-06-07T03:40:09.857Z,21.44
2019-06-07T03:42:39.759Z,21.45
2019-06-07T03:45:04.759Z,21.49
2019-06-07T03:47:32.449Z,21.52
2019-06-07T03:49:59.670Z,21.56
2019-06-07T03:52:27.447Z,21.59
2019-06-07T03:54:54.224Z,21.62
2019-06-07T03:57:20.913Z,21.64
2019-06-07T03:59:47.524Z,21.64
2019-06-07T04:02:14.191Z,21.64
2019-06-07T04:04:40.845Z,21.66
2019-06-07T04:07:07.419Z,21.67
2019-06-07T04:09:37.204Z,21.66
2019-06-07T04:12:02.306Z,21.63
2019-06-07T04:14:29.706Z,21.61
2019-06-07T04:16:57.229Z,21.61
2019-06-07T04:19:23.826Z,21.64
2019-06-07T04:21:50.399Z,21.66
2019-06-07T04:24:17.016Z,21.71
2019-06-07T04:26:46.645Z,21.75
2019-06-07T04:31:42.868Z,21.77
2019-06-07T04:34:08.530Z,21.79
2019-06-07T04:36:45.703Z,21.81
2019-06-07T04:39:03.479Z,21.84
2019-06-07T04:41:31.022Z,21.84
2019-06-07T04:43:57.714Z,21.85
2019-06-07T04:46:24.310Z,21.90
2019-06-07T04:48:50.938Z,21.92
2019-06-07T04:51:17.536Z,21.97
2019-06-07T04:53:44.177Z,22.00
2019-06-07T04:56:11.280Z,22.07
2019-06-07T04:58:38.414Z,22.15
2019-06-07T05:01:24.358Z,22.21
2019-06-07T05:03:36.116Z,22.29
2019-06-07T05:06:02.812Z,22.38
2019-06-07T05:08:31.461Z,22.50
2019-06-07T05:10:57.799Z,22.60
2019-06-07T05:13:24.451Z,22.69
2019-06-07T05:15:51.071Z,22.77
2019-06-07T05:18:17.684Z,22.81
2019-06-07T05:20:44.851Z,22.90
2019-06-07T05:23:11.559Z,23.00
2019-06-07T05:25:39.211Z,23.14
2019-06-07T05:28:06.508Z,23.26
2019-06-07T05:33:01.451Z,23.48
2019-06-07T05:35:28.141Z,23.55
2019-06-07T05:37:54.724Z,23.62
2019-06-07T05:40:21.591Z,23.70
2019-06-07T05:42:48.292Z,23.72
2019-06-07T05:45:14.969Z,23.75
2019-06-07T05:47:49.651Z,23.76
2019-06-07T05:50:37.817Z,23.76
2019-06-07T05:52:40.494Z,23.73
2019-06-07T05:55:06.893Z,23.66
2019-06-07T05:57:37.313Z,23.60
2019-06-07T06:00:01.768Z,23.54
2019-06-07T06:02:28.358Z,23.51
2019-06-07T06:04:54.950Z,23.50
2019-06-07T06:07:21.525Z,23.51
2019-06-07T06:09:48.121Z,23.54
2019-06-07T06:12:33.460Z,23.59
2019-06-07T06:14:45.018Z,23.67
2019-06-07T06:17:11.423Z,23.76
2019-06-07T06:19:40.652Z,23.85
2019-06-07T06:22:06.365Z,23.96
2019-06-07T06:24:33.045Z,24.06
2019-06-07T06:27:18.520Z,24.16
2019-06-07T06:29:27.995Z,24.24
2019-06-07T06:32:40.060Z,24.32
2019-06-07T06:34:22.973Z,24.41
2019-06-07T06:36:50.265Z,24.47
2019-06-07T06:39:17.423Z,24.55
2019-06-07T06:41:58.565Z,24.64
2019-06-07T06:44:12.462Z,24.70
2019-06-07T06:46:44.802Z,24.77
2019-06-07T06:49:07.458Z,24.88
2019-06-07T06:51:34.044Z,24.99
2019-06-07T06:54:02.686Z,25.10
2019-06-07T06:56:29.284Z,25.21
2019-06-07T07:01:24.228Z,25.37
2019-06-07T07:04:11.023Z,25.44
2019-06-07T07:06:27.062Z,25.47
2019-06-07T07:11:23.213Z,25.44
2019-06-07T07:13:49.920Z,25.47
2019-06-07T07:16:16.309Z,25.52
2019-06-07T07:18:44.243Z,25.60
2019-06-07T07:21:11.261Z,25.67
2019-06-07T07:24:08.133Z,25.75
2019-06-07T07:26:14.981Z,25.81
2019-06-07T07:28:43.064Z,25.87
2019-06-07T07:31:09.897Z,25.94
2019-06-07T07:36:23.209Z,26.06
2019-06-07T07:38:33.283Z,26.12
2019-06-07T07:41:14.459Z,26.15
2019-06-07T07:43:28.211Z,26.18
2019-06-07T07:46:01.435Z,26.25
2019-06-07T07:48:23.160Z,26.31
2019-06-07T07:50:54.571Z,26.36
2019-06-07T07:53:18.222Z,26.38
2019-06-07T07:55:45.757Z,26.41
2019-06-07T07:58:13.175Z,26.46
2019-06-07T08:01:07.893Z,26.52
2019-06-07T08:03:08.296Z,26.60
2019-06-07T08:05:43.007Z,26.68
2019-06-07T08:08:05.005Z,26.75
2019-06-07T08:10:31.569Z,26.83
2019-06-07T08:13:22.261Z,26.99
2019-06-07T08:15:26.514Z,27.11
2019-06-07T08:17:58.031Z,27.22
2019-06-07T08:20:21.433Z,27.36
2019-06-07T08:22:48.123Z,27.48
2019-06-07T08:25:14.691Z,27.59
2019-06-07T08:27:41.265Z,27.68
2019-06-07T08:30:46.594Z,27.73
2019-06-07T08:32:36.438Z,27.79
2019-06-07T08:35:06.471Z,27.77
2019-06-07T08:38:14.185Z,27.74
2019-06-07T08:40:01.753Z,27.70
2019-06-07T08:42:36.891Z,27.67
2019-06-07T08:45:01.558Z,27.65
2019-06-07T08:47:24.603Z,27.62
2019-06-07T08:49:55.964Z,27.59
2019-06-07T08:52:19.598Z,27.53
2019-06-07T08:54:46.218Z,27.48
2019-06-07T08:57:21.408Z,27.43
2019-06-07T08:59:41.190Z,27.41
2019-06-07T09:02:22.949Z,27.45
2019-06-07T09:04:36.108Z,27.46
2019-06-07T09:07:18.149Z,27.48
2019-06-07T09:09:31.343Z,27.50
2019-06-07T09:12:00.226Z,27.54
2019-06-07T09:14:26.432Z,27.58
2019-06-07T09:16:55.354Z,27.64
2019-06-07T09:19:21.346Z,27.70
2019-06-07T09:21:47.984Z,27.78
2019-06-07T09:24:14.655Z,27.86
2019-06-07T09:26:41.275Z,27.85
2019-06-07T09:29:11.616Z,27.89
2019-06-07T09:31:51.740Z,27.94
2019-06-07T09:34:13.759Z,28.06
2019-06-07T09:36:33.883Z,28.15
2019-06-07T09:39:06.468Z,28.30
2019-06-07T09:41:46.942Z,28.47
2019-06-07T09:44:13.049Z,28.60
2019-06-07T09:46:25.423Z,28.71
2019-06-07T09:51:20.778Z,29.05
2019-06-07T09:53:47.636Z,29.31
2019-06-07T09:56:14.211Z,29.61
2019-06-07T09:58:51.760Z,29.98
2019-06-07T10:01:13.296Z,30.46
2019-06-07T10:03:37.438Z,31.02
2019-06-07T10:06:12.366Z,31.63
2019-06-07T10:11:00.733Z,32.83
2019-06-07T10:13:27.353Z,33.24
2019-06-07T10:15:53.930Z,33.71
2019-06-07T10:18:20.495Z,34.19
2019-06-07T10:20:49.893Z,34.80
2019-06-07T10:23:16.486Z,35.32
2019-06-07T10:25:45.999Z,35.82
2019-06-07T10:28:12.611Z,36.28
2019-06-07T10:30:39.208Z,36.54
2019-06-07T10:33:06.927Z,36.83
2019-06-07T10:35:36.702Z,36.76
2019-06-07T10:38:04.490Z,36.60
2019-06-07T10:40:31.273Z,36.32
2019-06-07T10:42:57.909Z,36.15
2019-06-07T10:45:24.588Z,36.13
2019-06-07T10:47:51.167Z,36.13
2019-06-07T10:50:17.765Z,36.28
2019-06-07T10:52:44.370Z,36.21
2019-06-07T10:55:10.967Z,36.00
2019-06-07T10:57:37.631Z,36.33
2019-06-07T11:00:05.295Z,36.75
2019-06-07T11:02:32.061Z,37.05
2019-06-07T11:04:58.684Z,37.72
2019-06-07T11:07:25.297Z,38.58
2019-06-07T11:10:06.119Z,39.56
2019-06-07T11:12:20.265Z,40.60
2019-06-07T11:14:46.845Z,41.61
2019-06-07T11:17:13.522Z,42.55
2019-06-07T11:19:40.091Z,43.24
2019-06-07T11:22:07.933Z,43.86
2019-06-07T11:24:34.661Z,44.54
2019-06-07T11:27:01.249Z,45.33
2019-06-07T11:29:30.175Z,46.09
2019-06-07T11:31:56.841Z,46.77
2019-06-07T11:34:23.444Z,47.39
2019-06-07T11:36:51.146Z,47.84
2019-06-07T11:39:18.908Z,48.28
2019-06-07T11:41:45.570Z,48.81
2019-06-07T11:44:15.027Z,49.29
2019-06-07T11:46:41.848Z,49.73
2019-06-07T11:49:08.490Z,49.99
2019-06-07T11:51:35.091Z,50.34
2019-06-07T11:54:01.651Z,50.84
2019-06-07T11:56:28.262Z,51.56
2019-06-07T11:58:54.890Z,52.40
2019-06-07T12:01:21.797Z,53.23
2019-06-07T12:03:48.445Z,54.07
2019-06-07T12:06:16.434Z,54.93
2019-06-07T12:08:43.206Z,55.72
2019-06-07T12:11:10.148Z,56.40
2019-06-07T12:13:36.853Z,57.02
2019-06-07T12:16:03.498Z,57.27
2019-06-07T12:18:30.141Z,57.50
2019-06-07T12:20:56.714Z,57.82
2019-06-07T12:23:23.334Z,58.21
2019-06-07T12:25:49.904Z,57.81
2019-06-07T12:28:16.845Z,57.16
2019-06-07T12:30:43.621Z,57.33
2019-06-07T12:33:11.294Z,57.13
2019-06-07T12:35:38.010Z,55.91
2019-06-07T12:38:04.719Z,54.11
2019-06-07T12:40:32.377Z,52.98
2019-06-07T12:42:59.209Z,53.18
2019-06-07T12:45:43.537Z,53.64
2019-06-07T12:47:54.154Z,53.65
2019-06-07T12:50:21.684Z,53.83
2019-06-07T12:52:48.403Z,54.23
2019-06-07T12:55:16.022Z,54.79
2019-06-07T12:57:43.207Z,53.55
2019-06-07T13:00:09.845Z,52.22
2019-06-07T13:02:36.407Z,50.93
2019-06-07T13:05:04.647Z,49.84
2019-06-07T13:07:31.379Z,49.45
2019-06-07T13:09:57.947Z,49.77
2019-06-07T13:12:24.602Z,50.74
2019-06-07T13:14:51.203Z,51.85
2019-06-07T13:17:18.079Z,53.12
2019-06-07T13:19:44.839Z,52.23
2019-06-07T13:22:11.427Z,50.65
2019-06-07T13:24:38.027Z,49.19
2019-06-07T13:27:04.602Z,47.77
2019-06-07T13:29:32.221Z,46.50
2019-06-07T13:31:59.261Z,45.31
2019-06-07T13:34:25.887Z,44.16
2019-06-07T13:36:52.467Z,42.94
2019-06-07T13:39:19.268Z,41.60
2019-06-07T13:41:47.371Z,40.31
2019-06-07T13:44:13.985Z,39.11
2019-06-07T13:46:40.593Z,38.02
2019-06-07T13:49:07.185Z,37.06
2019-06-07T13:51:33.754Z,36.29
2019-06-07T13:54:00.393Z,35.63
2019-06-07T13:56:28.343Z,35.09
2019-06-07T13:58:55.124Z,34.58
2019-06-07T14:01:22.507Z,34.12
2019-06-07T14:03:49.296Z,33.74
2019-06-07T14:06:15.875Z,33.40
2019-06-07T14:08:42.455Z,33.13
2019-06-07T14:11:09.110Z,32.87
2019-06-07T14:13:35.840Z,32.59
2019-06-07T14:16:04.869Z,32.34
2019-06-07T14:18:31.626Z,32.10
2019-06-07T14:20:58.957Z,31.85
2019-06-07T14:23:42.392Z,31.63
2019-06-07T14:25:54.099Z,31.40
2019-06-07T14:28:24.602Z,31.22
2019-06-07T14:30:49.047Z,31.14
2019-06-07T14:33:18.182Z,31.11
2019-06-07T14:35:44.809Z,31.12
2019-06-07T14:38:11.410Z,31.15
2019-06-07T14:40:38.024Z,31.21
2019-06-07T14:43:04.593Z,31.24
2019-06-07T14:45:32.729Z,31.26
2019-06-07T14:47:59.525Z,31.18
2019-06-07T14:50:26.155Z,31.14
2019-06-07T14:52:52.951Z,31.13
2019-06-07T14:55:19.630Z,31.17
2019-06-07T14:57:46.466Z,31.23
2019-06-07T15:00:13.070Z,31.32
2019-06-07T15:02:39.984Z,31.42
2019-06-07T15:05:06.651Z,31.50
2019-06-07T15:07:33.245Z,31.58
2019-06-07T15:10:00.171Z,31.66
2019-06-07T15:12:27.519Z,31.72
2019-06-07T15:14:54.512Z,31.78
2019-06-07T15:17:21.126Z,31.83
2019-06-07T15:19:47.808Z,31.88
2019-06-07T15:22:14.392Z,31.92
2019-06-07T15:24:40.964Z,31.97
2019-06-07T15:27:07.574Z,32.01
2019-06-07T15:29:34.206Z,32.03
2019-06-07T15:32:00.776Z,32.05
2019-06-07T15:34:29.222Z,32.07
2019-06-07T15:36:55.753Z,32.10
2019-06-07T15:39:22.324Z,32.09
2019-06-07T15:41:48.945Z,32.02
2019-06-07T15:44:15.522Z,31.91
2019-06-07T15:46:44.221Z,31.79
2019-06-07T15:49:10.852Z,31.65
2019-06-07T15:51:38.660Z,31.53
2019-06-07T15:54:08.361Z,31.43
2019-06-07T15:56:34.966Z,31.33
2019-06-07T15:59:01.527Z,31.25
2019-06-07T16:01:28.136Z,31.17
2019-06-07T16:03:54.710Z,31.09
2019-06-07T16:06:24.049Z,31.00
2019-06-07T16:08:50.635Z,30.88
2019-06-07T16:11:17.220Z,30.70
2019-06-07T16:13:43.832Z,30.58
2019-06-07T16:16:10.634Z,30.49
2019-06-07T16:18:37.723Z,30.42
2019-06-07T16:21:04.830Z,30.33
2019-06-07T16:23:31.431Z,30.22
2019-06-07T16:25:58.043Z,30.11
2019-06-07T16:28:27.391Z,30.01
2019-06-07T16:30:53.979Z,29.95
2019-06-07T16:33:20.588Z,29.91
2019-06-07T16:35:47.161Z,29.89
2019-06-07T16:38:13.739Z,29.87
2019-06-07T16:40:40.427Z,29.85
2019-06-07T16:43:16.921Z,29.83
2019-06-07T16:45:36.491Z,29.80
2019-06-07T16:48:03.210Z,29.78
2019-06-07T16:50:29.877Z,29.76
2019-06-07T16:52:56.516Z,29.73
2019-06-07T16:55:23.718Z,29.71
2019-06-07T16:57:50.286Z,29.69
2019-06-07T17:00:16.895Z,29.64
2019-06-07T17:02:44.959Z,29.62
2019-06-07T17:05:11.885Z,29.61
2019-06-07T17:07:40.054Z,29.57
2019-06-07T17:10:06.847Z,29.54
2019-06-07T17:12:33.484Z,29.49
2019-06-07T17:15:00.067Z,29.45
2019-06-07T17:17:26.668Z,29.39
2019-06-07T17:19:53.349Z,29.33
2019-06-07T17:22:19.941Z,29.27
2019-06-07T17:24:47.599Z,29.19
2019-06-07T17:27:14.428Z,29.12
2019-06-07T17:29:41.994Z,29.05
2019-06-07T17:32:08.758Z,28.98
2019-06-07T17:34:35.371Z,28.91
2019-06-07T17:37:01.957Z,28.84
2019-06-07T17:39:28.614Z,28.77
2019-06-07T17:42:02.115Z,28.69
2019-06-07T17:44:23.606Z,28.63
2019-06-07T17:46:50.204Z,28.57
2019-06-07T17:49:17.198Z,28.51
2019-06-07T17:51:45.763Z,28.43
2019-06-07T17:54:12.547Z,28.38
2019-06-07T17:56:39.156Z,28.32
2019-06-07T17:59:05.754Z,28.26
2019-06-07T18:01:41.197Z,28.19
2019-06-07T18:04:00.752Z,28.13
2019-06-07T18:06:27.317Z,28.08
2019-06-07T18:08:53.960Z,28.02
2019-06-07T18:11:20.682Z,27.98
2019-06-07T18:13:48.241Z,27.91
2019-06-07T18:16:15.095Z,27.85
2019-06-07T18:18:41.665Z,27.79
2019-06-07T18:21:08.267Z,27.74
2019-06-07T18:23:34.874Z,27.68
2019-06-07T18:26:01.593Z,27.61
2019-06-07T18:28:28.307Z,27.54
2019-06-07T18:30:54.975Z,27.48
2019-06-07T18:33:21.550Z,27.43
2019-06-07T18:35:48.996Z,27.37
2019-06-07T18:38:15.670Z,27.32
2019-06-07T18:40:42.278Z,27.27
2019-06-07T18:43:08.858Z,27.21
2019-06-07T18:45:35.499Z,27.17
2019-06-07T18:48:02.082Z,27.11
2019-06-07T18:50:28.666Z,27.04
2019-06-07T18:52:55.266Z,27.00
2019-06-07T18:55:21.869Z,26.95
2019-06-07T18:57:48.508Z,26.88
2019-06-07T19:00:15.076Z,26.82
2019-06-07T19:02:41.747Z,26.78
2019-06-07T19:05:08.348Z,26.74
2019-06-07T19:07:34.928Z,26.69
2019-06-07T19:10:01.522Z,26.66
2019-06-07T19:12:28.119Z,26.62
2019-06-07T19:14:55.571Z,26.58
2019-06-07T19:17:22.356Z,26.55
2019-06-07T19:19:49.808Z,26.51
2019-06-07T19:22:16.534Z,26.47
2019-06-07T19:24:43.116Z,26.45
2019-06-07T19:27:09.704Z,26.40
2019-06-07T19:29:36.310Z,26.36
2019-06-07T19:32:02.899Z,26.32
2019-06-07T19:34:29.576Z,26.29
2019-06-07T19:36:56.176Z,26.24
2019-06-07T19:39:22.744Z,26.21
2019-06-07T19:41:49.362Z,26.17
2019-06-07T19:44:15.950Z,26.13
2019-06-07T19:46:42.572Z,26.09
2019-06-07T19:49:09.173Z,26.06
2019-06-07T19:51:36.724Z,26.01
2019-06-07T19:54:03.806Z,25.98
2019-06-07T19:56:30.386Z,25.94
2019-06-07T19:58:57.625Z,25.90
2019-06-07T20:01:24.349Z,25.85
2019-06-07T20:03:50.934Z,25.82
2019-06-07T20:06:17.570Z,25.77
2019-06-07T20:08:44.149Z,25.73
2019-06-07T20:11:10.733Z,25.69
2019-06-07T20:13:37.334Z,25.65
2019-06-07T20:16:05.134Z,25.60
2019-06-07T20:18:31.871Z,25.56
2019-06-07T20:20:58.610Z,25.51
2019-06-07T20:23:25.295Z,25.46
2019-06-07T20:25:51.918Z,25.44
2019-06-07T20:28:18.500Z,25.39
2019-06-07T20:30:45.105Z,25.36
2019-06-07T20:33:11.692Z,25.32
2019-06-07T20:35:38.302Z,25.28
2019-06-07T20:38:05.664Z,25.25
2019-06-07T20:40:32.564Z,25.21
2019-06-07T20:42:59.363Z,25.18
2019-06-07T20:45:33.513Z,25.14
2019-06-07T20:47:54.451Z,25.11
2019-06-07T20:50:21.101Z,25.08
2019-06-07T20:52:47.811Z,25.05
2019-06-07T20:55:14.447Z,25.02
2019-06-07T20:57:41.068Z,24.99
2019-06-07T21:00:14.666Z,24.96
2019-06-07T21:02:36.024Z,24.94
2019-06-07T21:05:03.404Z,24.91
2019-06-07T21:07:30.105Z,24.89
2019-06-07T21:09:56.732Z,24.87
2019-06-07T21:12:23.308Z,24.82
2019-06-07T21:14:49.885Z,24.79
2019-06-07T21:17:16.499Z,24.77
2019-06-07T21:19:43.100Z,24.74
2019-06-07T21:22:10.961Z,24.71
2019-06-07T21:24:37.669Z,24.68
2019-06-07T21:27:05.352Z,24.66
2019-06-07T21:29:32.121Z,24.63
2019-06-07T21:31:58.799Z,24.61
2019-06-07T21:34:25.371Z,24.58
2019-06-07T21:36:52.100Z,24.56
2019-06-07T21:39:18.719Z,24.54
2019-06-07T21:41:45.314Z,24.51
2019-06-07T21:44:12.440Z,24.48
2019-06-07T21:46:39.160Z,24.47
2019-06-07T21:49:06.430Z,24.46
2019-06-07T21:51:33.261Z,24.44
2019-06-07T21:53:59.892Z,24.41
2019-06-07T21:56:26.463Z,24.40
2019-06-07T21:58:53.038Z,24.38
2019-06-07T22:01:19.649Z,24.37
2019-06-07T22:03:46.210Z,24.34
2019-06-07T22:06:13.797Z,24.32
2019-06-07T22:08:40.600Z,24.30
2019-06-07T22:11:08.252Z,24.29
2019-06-07T22:13:34.988Z,24.26
2019-06-07T22:16:01.585Z,24.24
2019-06-07T22:18:28.204Z,24.20
2019-06-07T22:20:54.906Z,24.17
2019-06-07T22:23:21.478Z,24.13
2019-06-07T22:25:48.057Z,24.09
2019-06-07T22:28:14.774Z,24.07
2019-06-07T22:30:41.413Z,24.02
2019-06-07T22:33:08.672Z,23.99
2019-06-07T22:35:35.314Z,23.97
2019-06-07T22:38:01.874Z,23.95
2019-06-07T22:40:28.478Z,23.93
2019-06-07T22:42:55.053Z,23.92
2019-06-07T22:45:21.641Z,23.92
2019-06-07T22:47:48.225Z,23.91
2019-06-07T22:50:14.808Z,23.90
2019-06-07T22:52:41.443Z,23.88
2019-06-07T22:55:08.052Z,23.88
2019-06-07T22:57:34.656Z,23.88
2019-06-07T23:00:08.539Z,23.89
2019-06-07T23:02:29.560Z,23.88
2019-06-07T23:04:56.168Z,23.88
2019-06-07T23:07:22.742Z,23.88
2019-06-07T23:09:49.320Z,23.88
2019-06-07T23:12:17.401Z,23.88
2019-06-07T23:14:44.275Z,23.89
2019-06-07T23:17:11.600Z,23.89
2019-06-07T23:19:38.251Z,23.89
2019-06-07T23:22:04.824Z,23.88
2019-06-07T23:24:31.412Z,23.89
2019-06-07T23:26:57.998Z,23.89
2019-06-07T23:29:24.579Z,23.90
2019-06-07T23:31:51.285Z,23.91
2019-06-07T23:34:18.811Z,23.91
2019-06-07T23:36:45.649Z,23.91
2019-06-07T23:39:13.122Z,23.90
2019-06-07T23:41:39.881Z,23.90
2019-06-07T23:44:06.487Z,23.89
2019-06-07T23:46:33.054Z,23.89
2019-06-07T23:48:59.688Z,23.88
2019-06-07T23:51:26.256Z,23.87
2019-06-07T23:53:52.849Z,23.85
2019-06-07T23:56:20.522Z,23.82
2019-06-07T23:58:47.279Z,23.79
